Погода Белянинна 2 недели

Ростовская область, Россия

21 мая-03 июня
  • 21мая
    Сегодня
    +11°
    +27°
    Небольшая облачность
    ВремяПогодаТемператураВлажностьДавлениеВетер, м/сВероятность осадков
    00:00Ясно и безоблачно+15°C67 %762 мм2.0 м/с2 %
    03:00Ясно и безоблачно+12°C85 %763 мм2.0 м/с2 %
    06:00Ясно и безоблачно+13°C78 %763 мм2.1 м/с2 %
    09:00Ясно и безоблачно+22°C47 %764 мм1.9 м/с2 %
    12:00Облачно с прояснениями+25°C31 %764 мм2.8 м/с2 %
    15:00Небольшая облачность+27°C26 %763 мм2.1 м/с2 %
    18:00Ясно и безоблачно+26°C29 %762 мм1.9 м/с2 %
    21:00Ясно и безоблачно+19°C48 %763 мм2.5 м/с2 %
  • 22мая
    Среда
    +12°
    +29°
    Ясно и безоблачно
    ВремяПогодаТемператураВлажностьДавлениеВетер, м/сВероятность осадков
    00:00Ясно и безоблачно+15°C59 %762 мм1.7 м/с2 %
    03:00Ясно и безоблачно+12°C69 %762 мм2.4 м/с2 %
    06:00Ясно и безоблачно+13°C63 %762 мм2.7 м/с2 %
    09:00Ясно и безоблачно+22°C37 %763 мм2.3 м/с2 %
    12:00Ясно и безоблачно+27°C22 %762 мм4.0 м/с2 %
    15:00Ясно и безоблачно+28°C21 %761 мм4.3 м/с2 %
    18:00Ясно и безоблачно+27°C25 %760 мм3.5 м/с2 %
    21:00Ясно и безоблачно+19°C35 %761 мм2.7 м/с2 %
  • 23мая
    Четверг
    +15°
    +29°
    Ясно и безоблачно
    ВремяПогодаТемператураВлажностьДавлениеВетер, м/сВероятность осадков
    00:00Ясно и безоблачно+15°C50 %760 мм2.2 м/с2 %
    03:00Ясно и безоблачно+13°C56 %760 мм2.8 м/с2 %
    06:00Ясно и безоблачно+14°C62 %761 мм2.6 м/с2 %
    09:00Ясно и безоблачно+22°C42 %761 мм3.2 м/с2 %
    12:00Ясно и безоблачно+27°C25 %761 мм5.6 м/с2 %
    15:00Ясно и безоблачно+28°C22 %760 мм5.2 м/с2 %
    18:00Ясно и безоблачно+28°C25 %760 мм5.7 м/с2 %
    21:00Ясно и безоблачно+21°C50 %761 мм6.0 м/с2 %
  • 24мая
    Пятница
    +11°
    +25°
    Ясно и безоблачно
    ВремяПогодаТемператураВлажностьДавлениеВетер, м/сВероятность осадков
    00:00Ясно и безоблачно+18°C61 %762 мм6.0 м/с2 %
    03:00Ясно и безоблачно+16°C69 %762 мм6.4 м/с2 %
    06:00Ясно и безоблачно+15°C53 %764 мм7.2 м/с2 %
    09:00Ясно и безоблачно+20°C39 %765 мм8.3 м/с2 %
    12:00Ясно и безоблачно+24°C31 %765 мм9.0 м/с2 %
    15:00Ясно и безоблачно+24°C27 %765 мм8.7 м/с3 %
    18:00Ясно и безоблачно+22°C22 %765 мм8.7 м/с2 %
    21:00Ясно и безоблачно+18°C25 %767 мм7.7 м/с2 %
  • 25мая
    Суббота
    +12°
    +24°
    Небольшая облачность
    ВремяПогодаТемператураВлажностьДавлениеВетер, м/сВероятность осадков
    00:00Ясно и безоблачно+16°C30 %767 мм7.1 м/с2 %
    03:00Ясно и безоблачно+13°C31 %767 мм6.9 м/с2 %
    06:00Ясно и безоблачно+12°C35 %768 мм6.9 м/с2 %
    09:00Ясно и безоблачно+17°C29 %768 мм8.0 м/с2 %
    12:00Ясно и безоблачно+22°C21 %767 мм8.6 м/с2 %
    15:00Небольшая облачность+23°C17 %766 мм9.0 м/с2 %
    18:00Облачно с прояснениями+22°C20 %765 мм7.6 м/с2 %
    21:00Пасмурно, сплошная облачность+20°C20 %765 мм7.0 м/с2 %
Мы используем cookies
Соглашаюсь